Etusivu
METAR-TAF:

METAR-TAF

Lentoasemat :

Norne Fpso, Norja

Öljynporauslautta

Leveyspiiri: 66-01-48N, Pituuspiiri: 008-04-48E, korkeus merenpinnasta: 10 m

Tämänhetkinen sää

Tämä raportti tehtiin 20 minuuttia sitten, kello 12.20 UTC
Tuuli 5 kn idästä/kaakosta
Lämpötila 9°C
Kosteus 71%
Ilmanpaine 1020 hPa
Näkyvyys 10 km tai enemmän
Muutamia pilviä 2000 ft:n korkeudessa

METAR: ENNE 191220Z 11005KT 9999 FEW020 09/04 Q1020 W///S4

Aika: 14:40 (12:40 UTC)

Sääennuste

Tämä raportti tehtiin 1 tunti ja 40 minuuttia sitten, kello 11.00 UTC
Ennuste voimassa 19. päivästä klo 12 UTC - 19. päivään klo 17 UTC
Tuuli 12 kn idästä
Näkyvyys 10 km tai enemmän
Muutamia pilviä 2000 ft:n korkeudessa, Kasvava cumulus-pilvi.
Hajanaisia pilviä 4000 ft:n korkeudessa
Ajoittain
19. päivästä klo 12 UTC - 19. päivään klo 15 UTC
Muutamia pilviä 2500 ft:n korkeudessa, Cumulonimbus.

TAF: ENNE 191100Z 1912/1917 10012KT 9999 FEW020TCU SCT040 TEMPO 1912/1915 FEW025CB

Säähavainnot ja -ennusteet yli 4000 lentoasemalta (METAR- ja TAF-raportit).

Käytössä olevat sääasemat on merkitty karttaan keltaisilla ja punaisilla pisteillä.

Aseta hiiri pisteen päälle nähdäksesi sääaseman nimen.

Klikkaa sitten nähdäksesi säähavainnot ja -ennusteet.

Kartan vaihtaminen: klikkaa mustalla rastilla varustettuja vihreitä pisteitä, niin voit zoomata sisään; viivalla varustettua vihreää pistettä, niin voit zoomata ulos tai vihreitä nuolia, niin pääset viereisille kartoille.


METAR-TAF: